クライストチャーチ の空港の天気 - METARとTAF

クライストチャーチ国際空港 ( NZCH / CHC ) - ニュージーランド クライストチャーチ
飛行場実況気象(Metar)
観測時間06/15 09:30 NZST (06/14 21:30 UTC)
風向・風速北東 1m/s
視程200m
天気現象
全天を覆う雲 鉛直視程 60m
気温6℃
湿度100%
気圧1006hPa
METARNZCH 142130Z AUTO 04002KT 0200 R02/0350N R20/0450N FG VV002 06/06 Q1006 BECMG 9999 NSW FEW002
過去の天気等 Google飛行場航空写真 Wunderground天気予報

過去48時間のMETAR

飛行場予報(TAF)
発表時間: 6/15 05:09 NZST (6/14 17:09 UTC)
予報対象時間: 15日6時 NZST ~ 16日6時 NZST
風向・風速不定 1m/s
視程400m
天気現象
全天の8割程度の雲 雲底高度 60m
15日9時 NZST ~ 15日11時 NZST に徐々に
視程10km以上
天気現象運行に影響にある天気現象が終了
少しの雲 雲底高度 180m
15日18時 NZST ~ 15日20時 NZST に徐々に
風向・風速西南西 5m/s
15日20時 NZST ~ 15日22時 NZST に徐々に
全天を覆う雲 雲底高度 90m
15日21時 NZST から 確率 40% で
視程400m
天気現象
TAF NZCH 141709Z 1418/1518 VRB02KT 0400 FG BKN002
BECMG 1421/1423 9999 NSW FEW006
BECMG 1506/1508 24010KT
BECMG 1508/1510 OVC003
PROB40 1509/1518 0400 FG